Time;durP1;ratioP1;P1;durP2;ratioP2;P2;SDS_P1;SDS_P2;PMS_P1;PMS_P2;Temp;Humidity;BMP_temperature;BMP_pressure;BME280_temperature;BME280_humidity;BME280_pressure;Samples;Min_cycle;Max_cycle;Signal;HPM_P1;HPM_P2
2023/09/13 00:00:19;;;;;;;;;1.75;1.75;;;;;20.77;80.29;101300.13;5010674;28;9006;-68
2023/09/13 00:02:46;;;;;;;;;2.00;2.00;;;;;20.77;80.57;101302.84;5015848;28;8845;-69
2023/09/13 00:05:12;;;;;;;;;1.75;1.75;;;;;20.78;80.52;101296.28;5007080;28;8823;-68
2023/09/13 00:07:39;;;;;;;;;1.00;1.00;;;;;20.77;80.41;101287.25;5028538;23;8887;-69
2023/09/13 00:10:06;;;;;;;;;2.00;2.00;;;;;20.78;80.49;101288.09;5030412;28;8837;-68
2023/09/13 00:12:33;;;;;;;;;1.50;1.50;;;;;20.77;80.38;101281.78;5030410;28;8892;-67
2023/09/13 00:14:59;;;;;;;;;1.75;1.00;;;;;20.76;80.53;101287.53;5030251;28;8871;-68
2023/09/13 00:17:27;;;;;;;;;2.00;2.00;;;;;20.74;80.52;101288.59;5016979;28;8921;-69
2023/09/13 00:19:56;;;;;;;;;3.00;3.00;;;;;20.72;80.58;101271.59;5029076;28;9513;-70
2023/09/13 00:22:23;;;;;;;;;2.25;2.25;;;;;20.71;80.78;101278.16;5029555;28;8883;-68
2023/09/13 00:24:49;;;;;;;;;3.00;3.00;;;;;20.70;80.93;101279.25;5012376;28;8876;-70
2023/09/13 00:27:16;;;;;;;;;2.00;2.00;;;;;20.67;80.62;101276.19;5030013;28;8951;-70
2023/09/13 00:29:43;;;;;;;;;3.00;2.00;;;;;20.65;80.72;101278.31;5026710;28;8930;-70
2023/09/13 00:32:09;;;;;;;;;2.25;2.25;;;;;20.62;80.84;101282.41;5010024;28;8843;-69
2023/09/13 00:34:36;;;;;;;;;3.25;3.25;;;;;20.60;80.85;101281.00;5016373;28;8849;-69
2023/09/13 00:37:02;;;;;;;;;2.00;2.00;;;;;20.58;81.04;101289.47;5011891;28;8860;-70
2023/09/13 00:39:29;;;;;;;;;3.75;3.00;;;;;20.57;81.07;101289.69;5012268;28;8836;-70
2023/09/13 00:41:57;;;;;;;;;2.50;2.50;;;;;20.54;81.08;101285.56;5012263;28;8922;-70
2023/09/13 00:44:24;;;;;;;;;3.25;2.00;;;;;20.53;81.24;101291.25;5011258;28;9609;-69
2023/09/13 00:46:50;;;;;;;;;2.00;2.00;;;;;20.52;81.58;101284.97;5011858;28;8825;-70
2023/09/13 00:49:17;;;;;;;;;1.25;1.25;;;;;20.52;81.53;101287.72;5012160;28;8919;-70
2023/09/13 00:51:44;;;;;;;;;1.00;1.00;;;;;20.54;81.48;101290.19;5025281;28;8847;-70
2023/09/13 00:54:11;;;;;;;;;1.50;1.50;;;;;20.52;81.53;101282.25;5028626;28;8895;-70
2023/09/13 00:56:39;;;;;;;;;2.25;2.00;;;;;20.52;81.34;101284.16;5011158;28;8846;-70
2023/09/13 00:59:08;;;;;;;;;3.00;3.00;;;;;20.50;81.46;101276.19;5012081;28;8895;-70
2023/09/13 01:01:34;;;;;;;;;2.75;2.50;;;;;20.50;81.32;101284.41;5011866;28;8825;-69
2023/09/13 01:04:02;;;;;;;;;3.75;2.75;;;;;20.51;81.24;101288.78;5012075;28;8844;-70
2023/09/13 01:06:30;;;;;;;;;2.75;2.25;;;;;20.50;80.98;101278.94;5028867;28;8870;-70
2023/09/13 01:08:57;;;;;;;;;2.50;2.50;;;;;20.51;81.01;101277.03;5009918;28;8845;-69
2023/09/13 01:11:25;;;;;;;;;2.00;2.00;;;;;20.48;80.80;101279.16;5011369;28;8825;-70
2023/09/13 01:13:51;;;;;;;;;2.00;2.00;;;;;20.45;80.76;101285.09;5012696;28;8802;-70
2023/09/13 01:16:26;;;;;;;;;2.75;2.75;;;;;20.45;80.70;101276.06;5003640;28;8957;-70
2023/09/13 01:19:11;;;;;;;;;1.00;1.00;;;;;20.44;80.70;101274.41;4996525;28;9604;-70
2023/09/13 01:22:02;;;;;;;;;2.25;2.00;;;;;20.42;80.76;101273.84;5005713;28;8837;-70
2023/09/13 01:24:56;;;;;;;;;3.75;3.00;;;;;20.40;80.49;101274.09;5027639;28;8829;-70
2023/09/13 01:27:34;;;;;;;;;2.00;2.00;;;;;20.38;80.43;101278.16;5015577;28;8911;-71
2023/09/13 01:30:04;;;;;;;;;2.25;2.00;;;;;20.36;80.60;101286.59;5015839;28;8841;-69
2023/09/13 01:32:33;;;;;;;;;2.00;2.00;;;;;20.35;80.76;101273.19;5032273;28;8829;-70
2023/09/13 01:35:00;;;;;;;;;2.00;2.00;;;;;20.34;80.68;101271.53;5033185;28;8806;-70
2023/09/13 01:37:29;;;;;;;;;2.00;2.00;;;;;20.32;80.59;101277.22;5028247;28;8911;-70
2023/09/13 01:39:55;;;;;;;;;2.50;2.50;;;;;20.30;80.70;101273.13;5010898;28;8840;-69
2023/09/13 01:42:23;;;;;;;;;3.00;2.50;;;;;20.31;80.73;101275.59;5033210;28;8817;-69
2023/09/13 01:44:50;;;;;;;;;1.50;1.50;;;;;20.32;80.64;101268.22;5031899;28;8906;-70
2023/09/13 01:47:18;;;;;;;;;1.75;1.00;;;;;20.32;80.73;101273.69;5031639;28;8828;-70
2023/09/13 01:49:46;;;;;;;;;0.00;0.00;;;;;20.32;80.83;101269.03;5032952;28;8829;-70
2023/09/13 01:52:12;;;;;;;;;2.50;2.00;;;;;20.33;80.83;101269.84;5027111;28;8813;-71
2023/09/13 01:54:39;;;;;;;;;3.00;2.00;;;;;20.33;80.64;101267.94;5007630;28;8959;-69
2023/09/13 01:57:06;;;;;;;;;3.25;3.25;;;;;20.33;80.92;101265.22;5031567;28;8849;-70
2023/09/13 01:59:34;;;;;;;;;3.00;3.00;;;;;20.33;80.85;101270.69;5031632;28;8825;-70
2023/09/13 02:02:00;;;;;;;;;3.50;3.25;;;;;20.32;80.99;101273.69;5009831;28;9651;-70
2023/09/13 02:04:32;;;;;;;;;3.00;3.00;;;;;20.31;81.02;101272.03;5031131;28;9686;-69
2023/09/13 02:07:03;;;;;;;;;4.50;4.50;;;;;20.29;81.17;101266.78;5032468;28;8853;-69
2023/09/13 02:09:29;;;;;;;;;3.00;3.00;;;;;20.27;81.23;101268.97;5015070;28;8917;-70
2023/09/13 02:11:56;;;;;;;;;3.00;3.00;;;;;20.27;81.34;101268.13;5014972;28;8911;-69
2023/09/13 02:14:22;;;;;;;;;3.75;3.75;;;;;20.25;81.27;101265.63;5014988;28;8887;-70
2023/09/13 02:16:49;;;;;;;;;3.00;3.00;;;;;20.25;81.40;101269.22;5010358;28;8899;-70
2023/09/13 02:19:17;;;;;;;;;5.00;5.00;;;;;20.24;81.59;101262.06;5032562;28;8805;-70
2023/09/13 02:21:45;;;;;;;;;2.75;2.75;;;;;20.26;81.48;101278.25;5014186;28;8938;-70
2023/09/13 02:24:11;;;;;;;;;1.75;1.75;;;;;20.24;81.68;101278.47;5032650;28;8882;-70
2023/09/13 02:26:38;;;;;;;;;3.50;2.75;;;;;20.25;81.79;101282.03;5031732;28;8821;-70
2023/09/13 02:29:05;;;;;;;;;3.00;3.00;;;;;20.24;81.63;101286.69;5014190;28;9672;-68
2023/09/13 02:31:32;;;;;;;;;4.50;4.50;;;;;20.24;81.58;101292.13;5010673;28;8814;-70
2023/09/13 02:33:58;;;;;;;;;3.00;3.00;;;;;20.23;81.55;101284.19;5013905;28;8959;-70
2023/09/13 02:36:25;;;;;;;;;2.50;2.25;;;;;20.22;81.48;101286.09;5014265;28;8833;-69
2023/09/13 02:38:53;;;;;;;;;4.00;4.00;;;;;20.22;81.76;101288.84;5032143;28;8829;-69
2023/09/13 02:41:19;;;;;;;;;2.00;2.00;;;;;20.23;81.65;101289.66;5032698;28;8856;-70
2023/09/13 02:43:46;;;;;;;;;3.00;3.00;;;;;20.24;81.74;101285.84;5032850;28;8805;-70
2023/09/13 02:46:13;;;;;;;;;2.75;2.25;;;;;20.23;81.68;101292.41;5029363;28;8856;-69
2023/09/13 02:48:40;;;;;;;;;2.75;2.75;;;;;20.23;81.64;101284.19;5013774;28;8833;-70
2023/09/13 02:51:14;;;;;;;;;5.25;4.50;;;;;20.22;81.91;101291.56;5014526;28;8935;-70
2023/09/13 02:53:41;;;;;;;;;4.00;3.25;;;;;20.22;81.97;101291.56;5032495;28;9557;-70
2023/09/13 02:56:08;;;;;;;;;4.00;4.00;;;;;20.22;81.80;101290.75;5031705;28;8821;-70
2023/09/13 02:58:36;;;;;;;;;4.50;4.50;;;;;20.22;82.01;101294.31;5014245;28;8844;-70
2023/09/13 03:01:07;;;;;;;;;4.75;4.00;;;;;20.22;81.99;101294.31;5024696;28;8818;-70
2023/09/13 03:03:34;;;;;;;;;5.25;4.50;;;;;20.21;82.29;101289.06;5013955;28;8918;-70
2023/09/13 03:06:13;;;;;;;;;4.00;3.50;;;;;20.21;82.24;101281.69;5005032;28;9555;-70
2023/09/13 03:08:41;;;;;;;;;6.00;6.00;;;;;20.21;82.35;101283.59;4994456;28;8832;-70
2023/09/13 03:11:13;;;;;;;;;3.50;3.50;;;;;20.22;82.56;101285.28;4994409;28;9726;-69
2023/09/13 03:13:40;;;;;;;;;5.00;5.00;;;;;20.21;82.45;101272.66;5012450;28;8820;-68
2023/09/13 03:16:11;;;;;;;;;6.25;4.50;;;;;20.19;82.50;101277.56;5013610;28;8828;-70
2023/09/13 03:18:38;;;;;;;;;4.00;4.00;;;;;20.19;82.47;101283.84;5025957;28;8836;-70
2023/09/13 03:21:08;;;;;;;;;3.50;3.50;;;;;20.19;82.52;101288.50;5013867;28;9004;-70
2023/09/13 03:23:41;;;;;;;;;6.00;6.00;;;;;20.17;82.66;101280.53;5013897;28;8821;-68
2023/09/13 03:26:19;;;;;;;;;7.00;5.00;;;;;20.15;82.29;101288.16;5013278;28;9558;-69
2023/09/13 03:28:48;;;;;;;;;8.25;8.00;;;;;20.16;82.45;101291.72;5029544;28;8833;-69
2023/09/13 03:31:17;;;;;;;;;7.00;7.00;;;;;20.14;82.48;101286.53;5012497;28;8963;-70
2023/09/13 03:33:46;;;;;;;;;6.50;6.50;;;;;20.14;82.44;101286.53;5029621;28;8825;-69
2023/09/13 03:36:15;;;;;;;;;7.25;7.00;;;;;20.13;82.46;101284.00;5029420;28;8841;-70
2023/09/13 03:38:46;;;;;;;;;7.50;7.50;;;;;20.13;82.30;101286.75;5012982;28;9617;-70
2023/09/13 03:41:19;;;;;;;;;6.50;5.75;;;;;20.13;82.28;101290.31;5029350;28;8837;-70
2023/09/13 03:43:47;;;;;;;;;6.75;6.75;;;;;20.11;82.33;101295.19;5013047;28;8825;-70
2023/09/13 03:46:13;;;;;;;;;7.75;7.75;;;;;20.10;82.39;101282.63;5012278;28;8859;-69
2023/09/13 03:48:41;;;;;;;;;7.00;5.00;;;;;20.09;82.57;101293.78;5009509;28;8821;-69
2023/09/13 03:51:09;;;;;;;;;6.00;6.00;;;;;20.08;82.64;101283.94;5012962;28;8829;-70
2023/09/13 03:53:35;;;;;;;;;7.50;6.00;;;;;20.07;82.54;101285.00;5013182;28;8887;-69
2023/09/13 03:56:03;;;;;;;;;4.00;4.00;;;;;20.06;82.38;101295.13;4980148;28;8843;-68
2023/09/13 03:58:31;;;;;;;;;7.25;7.00;;;;;20.07;82.53;101299.50;4993384;28;8824;-69
2023/09/13 04:00:58;;;;;;;;;3.75;3.75;;;;;20.05;82.34;101289.88;4997401;28;8798;-70
2023/09/13 04:03:26;;;;;;;;;6.00;6.00;;;;;20.03;82.42;101283.84;5012943;28;8840;-70
2023/09/13 04:05:53;;;;;;;;;6.00;4.00;;;;;20.02;82.60;101283.03;5012969;28;8833;-70
2023/09/13 04:08:19;;;;;;;;;7.00;6.50;;;;;20.00;82.37;101277.78;5029824;28;8818;-69
2023/09/13 04:10:46;;;;;;;;;5.75;5.75;;;;;20.02;82.50;101271.25;5030642;28;9565;-70
2023/09/13 04:13:12;;;;;;;;;6.75;6.75;;;;;19.98;82.38;101273.66;5030494;28;8906;-71
2023/09/13 04:15:44;;;;;;;;;6.00;6.00;;;;;19.98;82.54;101279.94;5029439;28;8871;-70
2023/09/13 04:18:11;;;;;;;;;6.50;6.50;;;;;19.96;82.40;101275.78;5011576;28;8829;-70
2023/09/13 04:20:38;;;;;;;;;7.50;7.50;;;;;19.95;82.71;101282.34;5030463;28;8833;-70
2023/09/13 04:23:05;;;;;;;;;7.25;7.00;;;;;19.94;82.75;101286.16;5012437;28;8813;-70
2023/09/13 04:25:31;;;;;;;;;8.50;7.00;;;;;19.96;82.87;101294.91;5030136;28;8863;-69
2023/09/13 04:27:58;;;;;;;;;4.75;4.75;;;;;19.96;83.00;101293.00;5012313;28;8852;-69
2023/09/13 04:30:28;;;;;;;;;7.00;5.50;;;;;19.95;83.22;101299.56;5012715;28;8817;-70
2023/09/13 04:32:55;;;;;;;;;6.50;6.50;;;;;19.95;83.19;101296.84;5019370;28;8818;-70
2023/09/13 04:35:22;;;;;;;;;6.25;6.00;;;;;19.94;83.40;101297.91;5007600;28;8850;-69
2023/09/13 04:37:48;;;;;;;;;8.25;7.25;;;;;19.94;83.75;101295.19;5001207;28;8896;-69
2023/09/13 04:40:15;;;;;;;;;7.75;6.25;;;;;19.95;83.73;101301.47;5029977;28;8805;-70
2023/09/13 04:42:50;;;;;;;;;8.25;8.00;;;;;19.94;83.97;101305.28;5012428;28;9557;-70
2023/09/13 04:45:17;;;;;;;;;10.00;10.00;;;;;19.88;83.34;101333.56;5012641;28;8865;-71
2023/09/13 04:47:44;;;;;;;;;3.50;2.75;;;;;19.54;83.57;101340.78;5009624;28;8870;-70
2023/09/13 04:50:10;;;;;;;;;1.00;1.00;;;;;19.25;84.14;101351.66;5031927;28;8855;-69
2023/09/13 04:52:38;;;;;;;;;1.00;1.00;;;;;19.00;84.19;101366.38;5016388;28;8865;-70
2023/09/13 04:55:05;;;;;;;;;0.75;0.75;;;;;18.85;84.00;101373.38;5033082;28;8825;-70
2023/09/13 04:57:32;;;;;;;;;0.00;0.00;;;;;18.71;83.40;101370.03;5016014;28;8832;-70
2023/09/13 04:59:59;;;;;;;;;0.00;0.00;;;;;18.47;83.16;101371.84;5016478;28;8829;-69
2023/09/13 05:02:26;;;;;;;;;0.00;0.00;;;;;18.34;82.74;101385.69;5030651;28;8813;-70
2023/09/13 05:04:54;;;;;;;;;0.00;0.00;;;;;18.20;82.95;101387.78;5016009;28;9568;-71
2023/09/13 05:07:20;;;;;;;;;0.00;0.00;;;;;18.14;82.92;101397.69;5031406;28;8825;-71
2023/09/13 05:09:47;;;;;;;;;0.00;0.00;;;;;18.10;83.00;101410.13;5016214;28;8845;-70
2023/09/13 05:12:13;;;;;;;;;0.00;0.00;;;;;18.01;81.97;101406.06;5016172;28;8837;-70
2023/09/13 05:14:42;;;;;;;;;0.00;0.00;;;;;17.90;82.07;101437.63;5033940;28;8890;-71
2023/09/13 05:17:09;;;;;;;;;0.25;0.00;;;;;17.75;81.82;101427.13;5024548;28;8849;-68
2023/09/13 05:19:36;;;;;;;;;0.00;0.00;;;;;17.69;82.20;101428.00;5030187;28;8836;-70
2023/09/13 05:22:03;;;;;;;;;0.00;0.00;;;;;17.63;82.10;101409.03;5033089;28;8817;-69
2023/09/13 05:24:29;;;;;;;;;0.00;0.00;;;;;17.60;82.18;101437.53;5033651;28;8848;-70
2023/09/13 05:26:56;;;;;;;;;0.00;0.00;;;;;17.50;82.21;101438.06;5015541;28;8853;-70
2023/09/13 05:29:23;;;;;;;;;0.75;0.00;;;;;17.40;82.14;101435.00;5010850;28;9541;-70
2023/09/13 05:31:49;;;;;;;;;0.00;0.00;;;;;17.41;82.11;101435.84;5018282;28;8903;-69
2023/09/13 05:34:16;;;;;;;;;1.00;0.00;;;;;17.37;82.14;101431.91;5032078;28;8844;-69
2023/09/13 05:36:43;;;;;;;;;3.75;0.00;;;;;17.24;81.67;101450.03;5033193;28;8821;-70
2023/09/13 05:39:09;;;;;;;;;0.25;0.25;;;;;17.09;81.64;101444.09;5033593;28;8825;-68
2023/09/13 05:41:37;;;;;;;;;0.00;0.00;;;;;17.03;82.33;101453.16;5033385;28;8894;-69
2023/09/13 05:44:09;;;;;;;;;1.25;1.25;;;;;17.04;83.16;101462.97;5015581;28;8821;-70
2023/09/13 05:46:35;;;;;;;;;0.00;0.00;;;;;16.99;82.67;101470.97;5027252;28;8846;-71
2023/09/13 05:49:02;;;;;;;;;0.75;0.75;;;;;16.94;82.92;101470.81;5015707;28;9597;-70
2023/09/13 05:51:30;;;;;;;;;0.00;0.00;;;;;17.02;82.35;101481.41;5019275;28;8969;-71
2023/09/13 05:53:57;;;;;;;;;1.00;1.00;;;;;17.04;82.65;101477.41;5013488;28;8905;-70
2023/09/13 05:56:23;;;;;;;;;0.00;0.00;;;;;17.08;82.26;101477.78;5012928;28;9548;-70
2023/09/13 05:58:53;;;;;;;;;0.75;0.00;;;;;17.06;81.83;101479.91;5013301;28;8819;-70
2023/09/13 06:01:19;;;;;;;;;4.25;1.00;;;;;16.99;80.02;101492.72;5014616;28;8929;-70
2023/09/13 06:03:46;;;;;;;;;0.00;0.00;;;;;16.89;80.60;101511.41;5031221;28;8856;-68
2023/09/13 06:06:13;;;;;;;;;2.75;0.00;;;;;16.87;80.29;101506.19;5014385;28;8864;-70
2023/09/13 06:08:39;;;;;;;;;1.75;1.25;;;;;16.86;80.42;101525.47;5055661;23;8975;-68
2023/09/13 06:11:06;;;;;;;;;0.00;0.00;;;;;16.84;78.17;101525.66;5032832;28;8903;-68
2023/09/13 06:13:32;;;;;;;;;0.00;0.00;;;;;16.82;79.27;101554.16;5015040;28;9572;-69
2023/09/13 06:15:59;;;;;;;;;1.00;0.00;;;;;16.80;79.22;101544.31;5031325;28;8851;-68
2023/09/13 06:18:25;;;;;;;;;0.00;0.00;;;;;16.78;77.62;101548.31;5031556;28;8852;-68
2023/09/13 06:20:54;;;;;;;;;1.00;0.00;;;;;16.77;78.01;101557.50;5032549;28;8810;-68
2023/09/13 06:23:34;;;;;;;;;0.00;0.00;;;;;16.83;78.64;101563.97;5014910;28;8873;-69
2023/09/13 06:26:02;;;;;;;;;0.50;0.50;;;;;16.89;77.84;101566.63;5032391;28;8873;-69
2023/09/13 06:28:29;;;;;;;;;0.25;0.00;;;;;16.94;78.06;101575.00;5032314;28;8863;-70
2023/09/13 06:30:58;;;;;;;;;0.00;0.00;;;;;16.99;77.68;101566.16;5015072;28;8809;-69
2023/09/13 06:33:29;;;;;;;;;0.00;0.00;;;;;16.96;76.51;101567.44;5029830;28;8833;-69
2023/09/13 06:36:15;;;;;;;;;0.00;0.00;;;;;17.03;76.62;101568.22;5007827;28;9562;-68
2023/09/13 06:38:42;;;;;;;;;0.00;0.00;;;;;17.11;76.07;101569.03;5003261;28;8839;-68
2023/09/13 06:41:10;;;;;;;;;0.00;0.00;;;;;17.07;75.00;101582.22;5012503;28;8977;-68
2023/09/13 06:43:37;;;;;;;;;0.00;0.00;;;;;17.12;75.14;101584.28;5012713;28;8823;-68
2023/09/13 06:46:18;;;;;;;;;0.00;0.00;;;;;17.23;75.34;101597.19;5015152;28;9564;-68
2023/09/13 06:48:46;;;;;;;;;0.00;0.00;;;;;17.37;75.62;101598.75;5031615;28;8837;-68
2023/09/13 06:51:13;;;;;;;;;1.00;0.00;;;;;17.44;74.90;101595.97;5032034;28;8967;-68
2023/09/13 06:53:59;;;;;;;;;0.00;0.00;;;;;17.41;74.86;101602.69;5028183;28;8855;-68
2023/09/13 06:56:27;;;;;;;;;1.00;0.00;;;;;17.47;74.46;101595.56;5011770;28;8841;-69
2023/09/13 06:58:58;;;;;;;;;0.00;0.00;;;;;17.48;74.45;101598.03;4994654;28;8840;-69
2023/09/13 07:01:28;;;;;;;;;0.00;0.00;;;;;17.54;73.99;101597.16;5012078;28;8858;-69
2023/09/13 07:04:15;;;;;;;;;0.00;0.00;;;;;17.52;73.70;101607.44;5009353;28;8825;-68
2023/09/13 07:06:51;;;;;;;;;0.00;0.00;;;;;17.50;73.19;101619.59;5024947;28;8881;-68
2023/09/13 07:09:18;;;;;;;;;0.00;0.00;;;;;17.50;73.55;101608.69;5012041;28;8847;-69
2023/09/13 07:11:44;;;;;;;;;0.00;0.00;;;;;17.56;74.02;101624.16;5011467;28;8993;-68
2023/09/13 07:14:11;;;;;;;;;0.25;0.25;;;;;17.62;74.19;101625.97;5011107;28;8843;-68
2023/09/13 07:16:37;;;;;;;;;0.25;0.00;;;;;17.58;73.15;101627.47;4994028;28;8843;-68
2023/09/13 07:19:04;;;;;;;;;1.67;0.00;;;;;17.58;73.53;101629.38;5012206;28;8835;-68
2023/09/13 07:21:30;;;;;;;;;0.00;0.00;;;;;17.62;73.21;101622.41;5010476;28;8840;-68
2023/09/13 07:23:57;;;;;;;;;0.00;0.00;;;;;17.55;71.68;101630.66;5031406;28;8849;-68
2023/09/13 07:26:23;;;;;;;;;0.00;0.00;;;;;17.59;71.99;101633.78;5030719;28;8833;-68
2023/09/13 07:28:50;;;;;;;;;1.00;1.00;;;;;17.52;70.72;101642.00;5031088;28;8821;-69
2023/09/13 07:31:17;;;;;;;;;0.50;0.00;;;;;17.52;70.70;101639.25;5015969;28;8834;-69
2023/09/13 07:33:43;;;;;;;;;0.00;0.00;;;;;17.58;71.17;101651.97;4998299;28;8825;-68
2023/09/13 07:36:12;;;;;;;;;2.00;0.50;;;;;17.60;71.65;101644.44;5029469;28;8853;-67
2023/09/13 07:38:39;;;;;;;;;1.50;1.50;;;;;17.62;71.79;101660.53;5013216;28;8829;-68
2023/09/13 07:41:06;;;;;;;;;1.00;1.00;;;;;17.55;71.36;101655.16;5029003;28;8887;-68
2023/09/13 07:43:32;;;;;;;;;0.50;0.50;;;;;17.53;71.69;101665.44;5028560;28;8853;-69
2023/09/13 07:45:59;;;;;;;;;1.25;1.25;;;;;17.60;72.15;101654.50;5030454;28;9003;-68
2023/09/13 07:48:27;;;;;;;;;2.75;1.75;;;;;17.63;72.12;101660.34;5030021;28;8833;-68
2023/09/13 07:50:53;;;;;;;;;0.75;0.75;;;;;17.65;72.47;101652.78;5030735;28;8832;-68
2023/09/13 07:53:20;;;;;;;;;1.00;1.00;;;;;17.70;72.84;101663.84;5012583;28;9638;-68
2023/09/13 07:55:46;;;;;;;;;1.00;1.00;;;;;17.76;73.12;101664.88;5030769;28;8839;-68
2023/09/13 07:58:13;;;;;;;;;0.25;0.25;;;;;17.77;73.10;101678.25;5028252;28;8940;-68
2023/09/13 08:00:39;;;;;;;;;0.00;0.00;;;;;17.75;72.59;101680.38;5029942;28;8840;-68
2023/09/13 08:03:06;;;;;;;;;2.00;0.50;;;;;17.84;72.86;101685.56;5030936;28;8833;-68
2023/09/13 08:05:33;;;;;;;;;0.00;0.00;;;;;17.92;73.44;101682.56;5029393;28;8817;-68
2023/09/13 08:08:00;;;;;;;;;0.00;0.00;;;;;17.99;73.18;101703.25;5029014;28;8857;-69
2023/09/13 08:10:26;;;;;;;;;1.00;0.50;;;;;18.04;72.78;101705.28;5010901;28;8850;-68
2023/09/13 08:12:53;;;;;;;;;0.00;0.00;;;;;18.13;73.23;101711.28;5026475;28;9582;-68
2023/09/13 08:15:20;;;;;;;;;1.25;1.25;;;;;18.23;73.20;101723.38;5012918;28;8837;-68
2023/09/13 08:18:06;;;;;;;;;0.75;0.75;;;;;18.20;72.74;101729.25;5030242;28;8919;-68
2023/09/13 08:20:33;;;;;;;;;0.50;0.50;;;;;18.23;72.87;101728.81;5030690;28;8952;-67
2023/09/13 08:22:59;;;;;;;;;1.00;1.00;;;;;18.22;72.73;101740.75;5030366;28;9647;-68
2023/09/13 08:25:27;;;;;;;;;0.00;0.00;;;;;18.17;72.78;101754.22;5020365;28;8824;-68
2023/09/13 08:27:53;;;;;;;;;0.75;0.75;;;;;18.16;72.82;101755.28;5013513;28;8922;-68
2023/09/13 08:30:20;;;;;;;;;1.75;0.75;;;;;18.17;72.56;101765.13;5028708;28;9530;-69
2023/09/13 08:32:46;;;;;;;;;0.75;0.75;;;;;18.14;72.89;101765.56;5030274;28;8859;-68
2023/09/13 08:35:13;;;;;;;;;0.00;0.00;;;;;18.11;72.52;101771.47;5031008;28;8895;-67
2023/09/13 08:37:39;;;;;;;;;0.00;0.00;;;;;18.09;72.10;101783.63;5029807;28;9732;-67
2023/09/13 08:40:06;;;;;;;;;0.00;0.00;;;;;18.04;71.74;101778.84;5011960;28;8841;-68
2023/09/13 08:42:33;;;;;;;;;1.50;0.00;;;;;18.08;71.73;101792.88;5012496;28;8845;-68
2023/09/13 08:44:59;;;;;;;;;2.00;0.00;;;;;18.06;70.55;101800.41;5026154;28;8833;-68
2023/09/13 08:47:27;;;;;;;;;0.00;0.00;;;;;18.00;70.60;101813.88;5026833;28;9570;-68
2023/09/13 08:50:06;;;;;;;;;0.00;0.00;;;;;18.01;70.50;101814.72;5030047;28;8891;-69
2023/09/13 08:52:36;;;;;;;;;0.00;0.00;;;;;17.99;70.40;101820.38;5029820;28;8825;-68
2023/09/13 08:55:06;;;;;;;;;0.00;0.00;;;;;17.97;70.45;101814.31;5030158;28;8821;-68
2023/09/13 08:57:34;;;;;;;;;0.50;0.00;;;;;18.01;70.67;101818.25;5029957;28;8833;-68
2023/09/13 09:00:00;;;;;;;;;0.00;0.00;;;;;18.00;71.12;101832.94;5028142;28;8833;-69
2023/09/13 09:02:31;;;;;;;;;2.50;2.50;;;;;18.01;70.63;101831.88;5012186;28;8864;-69
2023/09/13 09:04:59;;;;;;;;;0.75;0.00;;;;;18.06;70.99;101833.94;5029406;28;9560;-68
2023/09/13 09:07:27;;;;;;;;;0.00;0.00;;;;;18.11;71.12;101841.47;5029404;28;8864;-69
2023/09/13 09:09:55;;;;;;;;;0.00;0.00;;;;;18.16;70.82;101847.09;5028441;28;8860;-68
2023/09/13 09:12:24;;;;;;;;;0.00;0.00;;;;;18.14;70.79;101843.75;5028766;28;9592;-69
2023/09/13 09:14:52;;;;;;;;;2.00;0.00;;;;;18.18;71.08;101845.81;5028144;28;8898;-69
2023/09/13 09:17:22;;;;;;;;;0.00;0.00;;;;;18.17;71.04;101846.88;5028156;28;8903;-67
2023/09/13 09:19:49;;;;;;;;;0.50;0.00;;;;;18.24;71.49;101850.41;5011440;28;9235;-67
2023/09/13 09:22:18;;;;;;;;;0.00;0.00;;;;;18.27;71.28;101860.88;5010445;28;9548;-68
2023/09/13 09:24:45;;;;;;;;;0.00;0.00;;;;;18.29;71.33;101861.47;5009939;28;8825;-68
2023/09/13 09:27:12;;;;;;;;;0.00;0.00;;;;;18.27;70.60;101876.34;4992059;28;8950;-68
2023/09/13 09:29:39;;;;;;;;;0.00;0.00;;;;;18.27;70.38;101862.72;4992290;28;8839;-67
2023/09/13 09:32:08;;;;;;;;;0.00;0.00;;;;;18.33;69.75;101866.47;5021983;28;8841;-67
2023/09/13 09:34:40;;;;;;;;;0.00;0.00;;;;;18.41;69.66;101868.94;5029610;28;8951;-67
2023/09/13 09:37:08;;;;;;;;;0.00;0.00;;;;;18.43;69.68;101877.72;5023147;28;8847;-67
2023/09/13 09:39:42;;;;;;;;;0.25;0.25;;;;;18.43;70.02;101870.41;5013751;28;9592;-68
2023/09/13 09:42:15;;;;;;;;;0.00;0.00;;;;;18.38;69.51;101874.81;5013465;28;8843;-68
2023/09/13 09:44:43;;;;;;;;;1.00;0.00;;;;;18.42;69.84;101873.31;5013703;28;8847;-68
2023/09/13 09:47:11;;;;;;;;;1.00;0.00;;;;;18.46;69.80;101880.00;4997724;28;8888;-67
2023/09/13 09:49:39;;;;;;;;;0.00;0.00;;;;;18.46;69.83;101874.56;5012260;28;8879;-69
2023/09/13 09:52:07;;;;;;;;;0.00;0.00;;;;;18.42;69.57;101901.41;5015586;28;8829;-67
2023/09/13 09:54:36;;;;;;;;;2.00;2.00;;;;;18.17;70.49;101912.28;5029125;28;8872;-67
2023/09/13 09:57:04;;;;;;;;;1.75;0.00;;;;;18.00;71.79;101906.50;4995290;28;8855;-67
2023/09/13 09:59:33;;;;;;;;;1.00;1.00;;;;;17.82;72.86;101916.44;5012120;28;8862;-68
2023/09/13 10:02:01;;;;;;;;;1.25;1.25;;;;;17.60;73.62;101924.88;5022148;28;8892;-68
2023/09/13 10:04:27;;;;;;;;;1.50;1.50;;;;;17.45;74.30;101921.56;5031268;28;8944;-67
2023/09/13 10:06:59;;;;;;;;;1.75;1.00;;;;;17.42;74.93;101922.84;5032042;28;8919;-68
2023/09/13 10:09:43;;;;;;;;;2.00;0.75;;;;;17.46;74.29;101928.66;5019377;28;8838;-68
2023/09/13 10:12:11;;;;;;;;;2.00;2.00;;;;;17.45;73.58;101927.84;4995543;28;8889;-67
2023/09/13 10:14:43;;;;;;;;;1.00;1.00;;;;;17.48;73.32;101941.03;5012824;28;8828;-68
2023/09/13 10:17:10;;;;;;;;;0.00;0.00;;;;;17.50;72.41;101935.34;4994945;28;8961;-67
2023/09/13 10:19:37;;;;;;;;;1.75;1.75;;;;;17.53;72.16;101937.66;5028668;28;8837;-68
2023/09/13 10:22:04;;;;;;;;;1.50;1.00;;;;;17.65;72.02;101925.06;5011507;28;8913;-68
2023/09/13 10:24:38;;;;;;;;;4.00;2.00;;;;;17.67;71.23;101938.47;5012744;28;8929;-68
2023/09/13 10:27:07;;;;;;;;;3.75;3.00;;;;;17.75;70.67;101935.56;4994673;28;8847;-67
2023/09/13 10:29:38;;;;;;;;;1.00;1.00;;;;;17.83;70.49;101937.19;4994949;28;8828;-67
2023/09/13 10:32:11;;;;;;;;;1.00;1.00;;;;;17.92;69.20;101935.91;4985179;28;8907;-67
2023/09/13 10:34:48;;;;;;;;;0.00;0.00;;;;;18.02;68.29;101942.53;5031701;28;8895;-67
2023/09/13 10:37:42;;;;;;;;;1.75;1.50;;;;;18.16;67.78;101946.03;5013336;28;8859;-67
2023/09/13 10:40:20;;;;;;;;;3.50;3.00;;;;;18.23;66.84;101946.84;5020986;28;8844;-68
2023/09/13 10:42:48;;;;;;;;;1.75;1.75;;;;;18.25;65.36;101944.72;5032123;28;8834;-67
2023/09/13 10:45:18;;;;;;;;;2.50;2.25;;;;;18.27;64.13;101950.81;5032112;28;8840;-67
2023/09/13 10:47:49;;;;;;;;;2.25;1.75;;;;;18.32;63.50;101949.31;5028858;28;8837;-67
2023/09/13 10:50:17;;;;;;;;;4.50;2.75;;;;;18.40;63.08;101951.78;5031315;28;8848;-67
2023/09/13 10:52:44;;;;;;;;;3.00;2.00;;;;;18.43;62.34;101960.38;5031931;28;8817;-67
2023/09/13 10:55:12;;;;;;;;;3.00;2.00;;;;;18.49;62.15;101967.66;5014069;28;8841;-68
2023/09/13 10:57:41;;;;;;;;;2.75;2.75;;;;;18.56;61.82;101975.81;5028099;28;8817;-69
2023/09/13 11:00:11;;;;;;;;;1.00;1.00;;;;;18.59;62.02;101979.97;5030544;28;9647;-67
2023/09/13 11:02:40;;;;;;;;;1.25;1.25;;;;;18.54;61.18;101973.28;5031914;28;8849;-67
2023/09/13 11:05:10;;;;;;;;;2.25;2.00;;;;;18.57;60.37;101965.72;5030038;28;8900;-68
2023/09/13 11:07:45;;;;;;;;;1.25;1.25;;;;;18.52;58.88;101971.84;5030949;28;8841;-69
2023/09/13 11:10:14;;;;;;;;;1.25;0.25;;;;;18.56;58.55;101978.53;5031707;28;8855;-70
2023/09/13 11:12:48;;;;;;;;;1.00;1.00;;;;;18.59;58.32;101971.78;5031557;28;8813;-69
2023/09/13 11:15:21;;;;;;;;;1.00;1.00;;;;;18.62;58.49;101977.63;5030361;28;9542;-69
2023/09/13 11:17:48;;;;;;;;;0.50;0.50;;;;;18.67;57.93;101990.59;5029959;28;8912;-69
2023/09/13 11:20:27;;;;;;;;;3.00;3.00;;;;;18.70;57.43;101985.59;5031255;28;8895;-69
2023/09/13 11:23:09;;;;;;;;;3.50;2.75;;;;;18.72;57.32;101988.13;5006278;28;8910;-69
2023/09/13 11:25:42;;;;;;;;;2.00;2.00;;;;;18.77;57.26;101986.38;5011549;28;8906;-69
2023/09/13 11:28:43;;;;;;;;;4.50;4.50;;;;;18.71;56.04;102003.63;4996449;28;8843;-67
2023/09/13 11:31:14;;;;;;;;;1.25;1.25;;;;;18.73;56.52;102008.88;4994177;28;8815;-67
2023/09/13 11:33:57;;;;;;;;;3.25;3.25;;;;;18.70;56.13;102001.94;5027186;28;8825;-69
2023/09/13 11:36:25;;;;;;;;;2.50;2.50;;;;;18.75;56.35;101999.38;5030757;28;8849;-68
2023/09/13 11:38:52;;;;;;;;;3.75;2.75;;;;;18.76;55.75;102011.16;5004675;28;8873;-68
2023/09/13 11:41:20;;;;;;;;;3.00;2.00;;;;;18.78;55.66;102012.59;5011386;28;8816;-68